createdAt,value
2022-10-20T00:01:09.987Z,100409.09
2022-10-20T00:03:37.561Z,100412.94
2022-10-20T00:06:25.896Z,100413.34
2022-10-20T00:08:55.123Z,100410.38
2022-10-20T00:11:23.814Z,100403.00
2022-10-20T00:13:52.903Z,100397.75
2022-10-20T00:16:21.342Z,100399.81
2022-10-20T00:18:48.252Z,100399.81
2022-10-20T00:21:21.354Z,100400.19
2022-10-20T00:23:48.352Z,100400.53
2022-10-20T00:26:21.454Z,100398.88
2022-10-20T00:28:49.383Z,100400.19
2022-10-20T00:31:17.031Z,100396.88
2022-10-20T00:33:43.975Z,100392.31
2022-10-20T00:36:14.177Z,100389.38
2022-10-20T00:38:42.675Z,100391.69
2022-10-20T00:41:13.897Z,100387.50
2022-10-20T00:43:51.324Z,100391.91
2022-10-20T00:46:23.307Z,100389.13
2022-10-20T00:48:56.937Z,100382.97
2022-10-20T00:51:27.407Z,100379.38
2022-10-20T00:54:00.387Z,100383.81
2022-10-20T00:56:27.274Z,100370.00
2022-10-20T00:58:55.049Z,100375.28
2022-10-20T01:01:21.960Z,100379.91
2022-10-20T01:03:51.415Z,100371.75
2022-10-20T01:06:21.373Z,100364.81
2022-10-20T01:08:50.227Z,100370.00
2022-10-20T01:11:34.908Z,100369.09
2022-10-20T01:14:04.708Z,100374.75
2022-10-20T01:16:51.154Z,100369.56
2022-10-20T01:19:35.937Z,100367.41
2022-10-20T01:22:39.918Z,100366.41
2022-10-20T01:25:18.053Z,100365.56
2022-10-20T01:28:11.116Z,100362.69
2022-10-20T01:30:47.055Z,100366.59
2022-10-20T01:33:51.197Z,100361.94
2022-10-20T01:36:31.172Z,100353.41
2022-10-20T01:39:15.446Z,100353.75
2022-10-20T01:41:53.542Z,100354.16
2022-10-20T01:44:24.009Z,100350.44
2022-10-20T01:46:53.112Z,100345.91
2022-10-20T01:49:20.482Z,100341.47
2022-10-20T01:51:47.443Z,100348.06
2022-10-20T01:54:26.259Z,100343.66
2022-10-20T01:57:17.700Z,100340.06
2022-10-20T02:00:14.632Z,100328.25
2022-10-20T02:02:54.092Z,100334.25
2022-10-20T02:05:37.279Z,100341.28
2022-10-20T02:08:33.198Z,100338.47
2022-10-20T02:11:03.430Z,100333.00
2022-10-20T02:13:32.093Z,100331.72
2022-10-20T02:16:03.872Z,100330.22
2022-10-20T02:18:41.840Z,100329.78
2022-10-20T02:21:10.140Z,100335.47
2022-10-20T02:23:39.764Z,100334.47
2022-10-20T02:26:09.708Z,100340.44
2022-10-20T02:28:40.885Z,100334.91
2022-10-20T02:31:08.442Z,100327.56
2022-10-20T02:33:36.054Z,100334.50
2022-10-20T02:36:07.105Z,100326.16
2022-10-20T02:38:34.149Z,100330.00
2022-10-20T02:41:01.125Z,100324.78
2022-10-20T02:43:28.112Z,100320.97
2022-10-20T02:45:55.045Z,100318.38
2022-10-20T02:48:21.872Z,100315.22
2022-10-20T02:50:48.634Z,100315.06
2022-10-20T02:53:15.487Z,100317.91
2022-10-20T02:55:43.639Z,100324.47
2022-10-20T02:58:11.107Z,100324.97
2022-10-20T03:00:37.971Z,100327.59
2022-10-20T03:03:04.840Z,100329.06
2022-10-20T03:05:31.668Z,100323.13
2022-10-20T03:07:58.477Z,100329.69
2022-10-20T03:10:25.277Z,100327.22
2022-10-20T03:12:52.164Z,100332.22
2022-10-20T03:15:18.938Z,100327.88
2022-10-20T03:17:45.719Z,100331.13
2022-10-20T03:20:12.507Z,100330.16
2022-10-20T03:22:39.420Z,100330.09
2022-10-20T03:25:06.556Z,100330.97
2022-10-20T03:27:33.549Z,100323.75
2022-10-20T03:30:00.799Z,100315.59
2022-10-20T03:32:27.570Z,100329.69
2022-10-20T03:34:54.458Z,100331.59
2022-10-20T03:37:21.191Z,100323.50
2022-10-20T03:39:48.032Z,100325.25
2022-10-20T03:42:15.937Z,100329.56
2022-10-20T03:44:43.028Z,100322.94
2022-10-20T03:47:09.797Z,100323.34
2022-10-20T03:49:36.641Z,100325.63
2022-10-20T03:52:03.809Z,100325.38
2022-10-20T03:54:31.247Z,100320.09
2022-10-20T03:56:58.081Z,100323.03
2022-10-20T03:59:28.005Z,100326.22
2022-10-20T04:01:57.512Z,100323.44
2022-10-20T04:04:24.380Z,100329.34
2022-10-20T04:06:51.161Z,100325.84
2022-10-20T04:09:18.063Z,100316.44
2022-10-20T04:11:44.811Z,100320.22
2022-10-20T04:14:11.744Z,100320.53
2022-10-20T04:16:38.516Z,100321.78
2022-10-20T04:19:05.350Z,100321.66
2022-10-20T04:21:32.205Z,100324.59
2022-10-20T04:23:58.978Z,100317.16
2022-10-20T04:26:25.815Z,100322.88
2022-10-20T04:28:53.441Z,100320.59
2022-10-20T04:31:20.568Z,100316.31
2022-10-20T04:33:47.337Z,100315.38
2022-10-20T04:36:14.214Z,100316.50
2022-10-20T04:38:40.958Z,100315.50
2022-10-20T04:41:07.792Z,100305.56
2022-10-20T04:43:34.818Z,100301.34
2022-10-20T04:46:07.022Z,100304.97
2022-10-20T04:48:35.859Z,100311.16
2022-10-20T04:51:08.888Z,100311.97
2022-10-20T04:53:35.866Z,100302.06
2022-10-20T04:56:03.949Z,100300.72
2022-10-20T04:58:31.258Z,100300.38
2022-10-20T05:01:03.298Z,100301.09
2022-10-20T05:03:30.207Z,100294.97
2022-10-20T05:06:12.486Z,100301.94
2022-10-20T05:08:41.359Z,100295.06
2022-10-20T05:11:09.325Z,100295.66
2022-10-20T05:13:37.650Z,100295.31
2022-10-20T05:16:04.757Z,100290.69
2022-10-20T05:18:32.468Z,100286.38
2022-10-20T05:21:14.773Z,100288.75
2022-10-20T05:23:43.150Z,100292.63
2022-10-20T05:26:13.332Z,100296.66
2022-10-20T05:28:43.782Z,100293.84
2022-10-20T05:31:10.708Z,100295.53
2022-10-20T05:33:38.822Z,100295.66
2022-10-20T05:36:10.976Z,100301.97
2022-10-20T05:38:38.337Z,100309.13
2022-10-20T05:41:16.087Z,100312.28
2022-10-20T05:43:43.102Z,100312.50
2022-10-20T05:46:09.944Z,100316.72
2022-10-20T05:48:42.134Z,100310.72
2022-10-20T05:51:14.792Z,100317.72
2022-10-20T05:53:43.392Z,100312.09
2022-10-20T05:56:12.546Z,100315.91
2022-10-20T05:58:40.407Z,100323.03
2022-10-20T06:01:12.732Z,100320.44
2022-10-20T06:03:39.895Z,100311.84
2022-10-20T06:06:06.772Z,100315.56
2022-10-20T06:08:34.730Z,100320.19
2022-10-20T06:11:06.558Z,100313.19
2022-10-20T06:13:33.886Z,100319.28
2022-10-20T06:16:09.796Z,100322.44
2022-10-20T06:18:37.658Z,100328.09
2022-10-20T06:21:07.754Z,100333.06
2022-10-20T06:23:35.064Z,100337.69
2022-10-20T06:26:23.625Z,100329.94
2022-10-20T06:28:58.609Z,100331.50
2022-10-20T06:31:32.428Z,100332.66
2022-10-20T06:34:00.263Z,100338.28
2022-10-20T06:36:28.235Z,100339.97
2022-10-20T06:38:57.260Z,100334.41
2022-10-20T06:41:26.028Z,100343.84
2022-10-20T06:43:54.165Z,100333.88
2022-10-20T06:46:21.020Z,100337.28
2022-10-20T06:48:47.816Z,100336.94
2022-10-20T06:51:16.496Z,100337.25
2022-10-20T06:53:46.562Z,100331.13
2022-10-20T06:56:19.082Z,100330.53
2022-10-20T06:58:48.845Z,100340.63
2022-10-20T07:01:24.177Z,100345.81
2022-10-20T07:03:53.721Z,100344.63
2022-10-20T07:06:23.685Z,100340.09
2022-10-20T07:08:52.942Z,100330.25
2022-10-20T07:11:22.058Z,100336.13
2022-10-20T07:13:49.045Z,100328.66
2022-10-20T07:16:20.816Z,100335.06
2022-10-20T07:18:47.894Z,100329.66
2022-10-20T07:21:17.025Z,100330.28
2022-10-20T07:23:44.717Z,100328.50
2022-10-20T07:26:17.906Z,100329.34
2022-10-20T07:28:50.830Z,100325.19
2022-10-20T07:31:23.306Z,100323.69
2022-10-20T07:34:06.779Z,100317.72
2022-10-20T07:36:39.036Z,100316.97
2022-10-20T07:39:06.701Z,100311.50
2022-10-20T07:41:34.264Z,100322.28
2022-10-20T07:44:01.080Z,100312.88
2022-10-20T07:46:27.944Z,100300.00
2022-10-20T07:48:54.763Z,100310.03
2022-10-20T07:51:21.557Z,100309.78
2022-10-20T07:54:02.275Z,100308.50
2022-10-20T07:56:35.137Z,100303.50
2022-10-20T07:59:02.302Z,100302.72
2022-10-20T08:01:29.201Z,100298.00
2022-10-20T08:03:56.063Z,100297.47
2022-10-20T08:06:23.285Z,100297.22
2022-10-20T08:08:50.149Z,100295.88
2022-10-20T08:11:17.526Z,100301.41
2022-10-20T08:13:44.348Z,100296.16
2022-10-20T08:16:20.176Z,100294.03
2022-10-20T08:18:51.981Z,100287.47
2022-10-20T08:21:20.553Z,100295.06
2022-10-20T08:23:48.696Z,100279.81
2022-10-20T08:26:21.090Z,100287.66
2022-10-20T08:28:49.979Z,100282.94
2022-10-20T08:31:17.643Z,100289.75
2022-10-20T08:33:46.823Z,100286.56
2022-10-20T08:36:16.922Z,100287.59
2022-10-20T08:38:43.944Z,100274.19
2022-10-20T08:41:34.485Z,100276.28
2022-10-20T08:44:04.215Z,100283.06
2022-10-20T08:46:39.963Z,100281.97
2022-10-20T08:49:18.508Z,100274.53
2022-10-20T08:51:45.856Z,100273.22
2022-10-20T08:54:15.106Z,100266.91
2022-10-20T08:56:42.486Z,100264.72
2022-10-20T08:59:39.797Z,100261.03
2022-10-20T09:02:16.305Z,100256.22
2022-10-20T09:04:54.528Z,100259.34
2022-10-20T09:07:24.103Z,100261.63
2022-10-20T09:09:51.416Z,100267.63
2022-10-20T09:12:20.140Z,100259.97
2022-10-20T09:14:47.055Z,100256.78
2022-10-20T09:17:17.959Z,100253.88
2022-10-20T09:19:54.664Z,100249.84
2022-10-20T09:22:22.050Z,100243.00
2022-10-20T09:24:51.499Z,100242.72
2022-10-20T09:27:35.708Z,100243.16
2022-10-20T09:30:19.396Z,100229.94
2022-10-20T09:32:47.858Z,100238.59
2022-10-20T09:35:25.789Z,100234.88
2022-10-20T09:38:19.183Z,100227.50
2022-10-20T09:40:59.038Z,100224.25
2022-10-20T09:43:26.757Z,100231.25
2022-10-20T09:45:56.118Z,100221.72
2022-10-20T09:48:34.518Z,100219.81
2022-10-20T09:51:01.691Z,100218.91
2022-10-20T09:53:57.937Z,100215.66
2022-10-20T09:56:29.818Z,100214.81
2022-10-20T09:58:58.525Z,100215.25
2022-10-20T10:01:25.683Z,100215.53
2022-10-20T10:03:57.499Z,100217.03
2022-10-20T10:06:24.240Z,100214.34
2022-10-20T10:08:51.747Z,100214.03
2022-10-20T10:11:21.446Z,100213.47
2022-10-20T10:13:51.597Z,100218.44
2022-10-20T10:16:21.953Z,100216.06
2022-10-20T10:19:01.555Z,100212.91
2022-10-20T10:21:30.457Z,100211.59
2022-10-20T10:24:02.574Z,100207.09
2022-10-20T10:26:35.537Z,100211.06
2022-10-20T10:29:03.245Z,100212.66
2022-10-20T10:31:30.273Z,100208.97
2022-10-20T10:34:22.824Z,100202.59
2022-10-20T10:36:49.673Z,100207.09
2022-10-20T10:39:16.939Z,100197.59
2022-10-20T10:42:03.868Z,100193.91
2022-10-20T10:44:40.937Z,100184.13
2022-10-20T10:47:23.346Z,100177.72
2022-10-20T10:49:53.647Z,100178.22
2022-10-20T10:52:35.942Z,100165.59
2022-10-20T10:55:48.293Z,100165.03
2022-10-20T10:58:51.458Z,100162.59
2022-10-20T11:01:18.933Z,100159.28
2022-10-20T11:03:49.471Z,100146.31
2022-10-20T11:06:40.619Z,100137.56
2022-10-20T11:09:30.579Z,100132.47
2022-10-20T11:12:48.353Z,100131.69
2022-10-20T11:15:51.482Z,100124.47
2022-10-20T11:19:00.099Z,100124.28
2022-10-20T11:21:43.865Z,100117.53
2022-10-20T11:24:32.614Z,100110.00
2022-10-20T11:27:08.566Z,100107.78
2022-10-20T11:29:47.055Z,100105.91
2022-10-20T11:35:13.914Z,100090.28
2022-10-20T11:37:51.682Z,100081.78
2022-10-20T11:40:32.289Z,100084.13
2022-10-20T11:43:14.273Z,100079.53
2022-10-20T11:46:00.385Z,100075.53
2022-10-20T11:48:34.710Z,100073.09
2022-10-20T11:51:26.820Z,100071.81
2022-10-20T11:54:08.870Z,100065.47
2022-10-20T11:56:52.413Z,100063.03
2022-10-20T11:59:35.179Z,100057.63
2022-10-20T12:02:32.110Z,100050.22
2022-10-20T12:05:17.700Z,100043.25
2022-10-20T12:08:24.669Z,100041.59
2022-10-20T12:11:05.908Z,100040.50
2022-10-20T12:13:56.052Z,100032.75
2022-10-20T12:16:53.774Z,100042.47
2022-10-20T12:19:26.429Z,100031.91
2022-10-20T12:22:00.898Z,100027.59
2022-10-20T12:24:34.238Z,100019.25
2022-10-20T12:27:03.776Z,100013.34
2022-10-20T12:29:30.548Z,100018.34
2022-10-20T12:32:22.118Z,100012.47
2022-10-20T12:35:00.316Z,100008.44
2022-10-20T12:37:29.650Z,100009.25
2022-10-20T12:40:19.843Z,100003.34
2022-10-20T12:42:49.509Z,99991.13
2022-10-20T12:45:16.193Z,99986.47
2022-10-20T12:47:50.278Z,99989.91
2022-10-20T12:50:26.507Z,99979.84
2022-10-20T12:52:54.013Z,99977.19
2022-10-20T12:55:40.942Z,99970.06
2022-10-20T12:58:18.294Z,99954.69
2022-10-20T13:00:47.938Z,99957.50
2022-10-20T13:03:42.842Z,99962.16
2022-10-20T13:06:24.781Z,99951.78
2022-10-20T13:09:03.976Z,99952.25
2022-10-20T13:11:43.640Z,99953.03
2022-10-20T13:14:14.363Z,99937.16
2022-10-20T13:16:56.931Z,99941.53
2022-10-20T13:19:33.851Z,99941.53
2022-10-20T13:22:28.412Z,99932.56
2022-10-20T13:24:57.505Z,99926.66
2022-10-20T13:27:24.374Z,99934.78
2022-10-20T13:29:51.557Z,99941.91
2022-10-20T13:32:47.757Z,99939.75
2022-10-20T13:36:07.754Z,99938.38
2022-10-20T13:38:37.455Z,99932.16
2022-10-20T13:41:19.109Z,99932.81
2022-10-20T13:44:04.433Z,99933.00
2022-10-20T13:46:58.674Z,99930.03
2022-10-20T13:49:39.844Z,99923.97
2022-10-20T13:52:12.339Z,99927.88
2022-10-20T13:54:44.130Z,99929.44
2022-10-20T13:57:33.654Z,99933.16
2022-10-20T14:00:17.373Z,99931.75
2022-10-20T14:02:54.162Z,99931.00
2022-10-20T14:05:23.391Z,99919.34
2022-10-20T14:07:50.957Z,99918.25
2022-10-20T14:10:39.175Z,99913.41
2022-10-20T14:13:10.604Z,99906.13
2022-10-20T14:15:38.048Z,99898.19
2022-10-20T14:18:08.047Z,99899.25
2022-10-20T14:20:36.658Z,99897.69
2022-10-20T14:23:05.016Z,99896.13
2022-10-20T14:25:33.550Z,99899.06
2022-10-20T14:28:03.894Z,99896.41
2022-10-20T14:30:38.714Z,99894.09
2022-10-20T14:33:14.284Z,99901.84
2022-10-20T14:35:45.440Z,99892.81
2022-10-20T14:38:19.729Z,99897.34
2022-10-20T14:40:57.969Z,99893.44
2022-10-20T14:43:36.654Z,99890.63
2022-10-20T14:46:05.082Z,99889.34
2022-10-20T14:48:44.545Z,99884.06
2022-10-20T14:51:38.341Z,99890.44
2022-10-20T14:54:20.221Z,99889.81
2022-10-20T14:56:59.684Z,99888.38
2022-10-20T14:59:32.068Z,99886.31
2022-10-20T15:02:08.968Z,99877.13
2022-10-20T15:04:38.706Z,99885.97
2022-10-20T15:07:28.489Z,99879.72
2022-10-20T15:10:04.290Z,99869.28
2022-10-20T15:12:34.528Z,99883.91
2022-10-20T15:15:17.352Z,99871.84
2022-10-20T15:17:46.999Z,99865.78
2022-10-20T15:20:31.122Z,99866.06
2022-10-20T15:23:19.238Z,99853.94
2022-10-20T15:26:00.550Z,99866.97
2022-10-20T15:28:34.263Z,99852.03
2022-10-20T15:31:03.354Z,99836.00
2022-10-20T15:33:31.602Z,99835.94
2022-10-20T15:35:58.463Z,99834.69
2022-10-20T15:38:25.231Z,99831.97
2022-10-20T15:40:52.263Z,99833.97
2022-10-20T15:43:19.185Z,99834.56
2022-10-20T15:46:04.356Z,99827.06
2022-10-20T15:48:31.483Z,99829.31
2022-10-20T15:50:58.514Z,99822.78
2022-10-20T15:53:25.544Z,99825.41
2022-10-20T15:55:52.654Z,99823.09
2022-10-20T15:58:20.105Z,99821.53
2022-10-20T16:00:47.302Z,99826.72
2022-10-20T16:03:19.158Z,99823.59
2022-10-20T16:05:49.196Z,99821.94
2022-10-20T16:08:16.423Z,99815.66
2022-10-20T16:10:43.967Z,99824.03
2022-10-20T16:13:11.979Z,99830.75
2022-10-20T16:15:38.829Z,99819.56
2022-10-20T16:18:08.895Z,99818.88
2022-10-20T16:20:39.212Z,99831.78
2022-10-20T16:23:06.518Z,99830.19
2022-10-20T16:25:33.412Z,99832.19
2022-10-20T16:28:00.390Z,99828.56
2022-10-20T16:30:27.520Z,99825.56
2022-10-20T16:32:55.263Z,99827.13
2022-10-20T16:35:22.454Z,99820.19
2022-10-20T16:37:49.505Z,99815.00
2022-10-20T16:40:19.333Z,99823.72
2022-10-20T16:42:47.195Z,99820.47
2022-10-20T16:45:14.311Z,99825.06
2022-10-20T16:47:41.996Z,99809.53
2022-10-20T16:50:10.267Z,99828.28
2022-10-20T16:52:37.114Z,99816.88
2022-10-20T16:55:04.317Z,99819.31
2022-10-20T16:57:36.926Z,99821.22
2022-10-20T17:00:07.538Z,99822.41
2022-10-20T17:02:36.075Z,99824.97
2022-10-20T17:05:09.182Z,99813.91
2022-10-20T17:07:37.891Z,99819.75
2022-10-20T17:10:07.401Z,99826.13
2022-10-20T17:12:34.887Z,99815.00
2022-10-20T17:15:02.604Z,99816.16
2022-10-20T17:17:30.329Z,99817.94
2022-10-20T17:19:58.648Z,99816.94
2022-10-20T17:22:26.113Z,99818.59
2022-10-20T17:24:54.188Z,99814.22
2022-10-20T17:27:21.706Z,99809.50
2022-10-20T17:29:49.125Z,99812.84
2022-10-20T17:32:18.228Z,99813.22
2022-10-20T17:34:45.772Z,99803.78
2022-10-20T17:37:13.353Z,99792.91
2022-10-20T17:42:37.813Z,99792.03
2022-10-20T17:45:07.708Z,99802.50
2022-10-20T17:47:35.495Z,99792.63
2022-10-20T17:50:03.341Z,99794.78
2022-10-20T17:52:31.094Z,99790.16
2022-10-20T17:54:59.104Z,99795.06
2022-10-20T17:57:29.878Z,99791.16
2022-10-20T18:00:00.427Z,99788.53
2022-10-20T18:02:33.775Z,99787.34
2022-10-20T18:05:01.769Z,99785.31
2022-10-20T18:07:29.398Z,99790.28
2022-10-20T18:09:58.285Z,99784.31
2022-10-20T18:12:25.908Z,99777.06
2022-10-20T18:14:53.938Z,99781.78
2022-10-20T18:17:22.114Z,99787.03
2022-10-20T18:19:49.961Z,99788.78
2022-10-20T18:22:19.169Z,99788.13
2022-10-20T18:24:46.770Z,99793.66
2022-10-20T18:27:14.503Z,99785.19
2022-10-20T18:29:42.336Z,99771.72
2022-10-20T18:32:11.515Z,99777.47
2022-10-20T18:34:39.431Z,99770.31
2022-10-20T18:37:11.540Z,99766.63
2022-10-20T18:39:40.884Z,99765.16
2022-10-20T18:42:08.831Z,99756.28
2022-10-20T18:44:37.067Z,99758.50
2022-10-20T18:47:07.515Z,99760.28
2022-10-20T18:49:38.686Z,99749.34
2022-10-20T18:52:06.670Z,99749.91
2022-10-20T18:54:34.874Z,99748.06
2022-10-20T18:57:04.480Z,99751.34
2022-10-20T18:59:32.622Z,99746.59
2022-10-20T19:02:01.120Z,99747.44
2022-10-20T19:04:29.473Z,99748.44
2022-10-20T19:06:58.707Z,99740.56
2022-10-20T19:09:26.723Z,99742.38
2022-10-20T19:11:54.855Z,99738.75
2022-10-20T19:14:22.533Z,99739.53
2022-10-20T19:16:50.724Z,99734.88
2022-10-20T19:19:22.392Z,99738.16
2022-10-20T19:21:49.912Z,99740.22
2022-10-20T19:24:22.856Z,99735.72
2022-10-20T19:29:51.045Z,99726.94
2022-10-20T19:32:20.222Z,99728.19
2022-10-20T19:34:48.013Z,99731.13
2022-10-20T19:37:15.374Z,99737.09
2022-10-20T19:39:43.406Z,99737.09
2022-10-20T19:42:11.776Z,99732.69
2022-10-20T19:44:40.746Z,99735.22
2022-10-20T19:47:09.428Z,99735.22
2022-10-20T19:49:36.909Z,99738.13
2022-10-20T19:52:06.493Z,99733.16
2022-10-20T19:54:36.065Z,99729.44
2022-10-20T19:57:05.077Z,99739.50
2022-10-20T19:59:34.387Z,99745.91
2022-10-20T20:02:03.951Z,99737.03
2022-10-20T20:04:31.449Z,99728.41
2022-10-20T20:07:02.353Z,99723.09
2022-10-20T20:09:30.302Z,99723.16
2022-10-20T20:12:00.006Z,99723.94
2022-10-20T20:14:27.387Z,99727.44
2022-10-20T20:16:55.034Z,99715.91
2022-10-20T20:19:23.631Z,99715.63
2022-10-20T20:21:50.938Z,99719.53
2022-10-20T20:24:18.141Z,99717.19
2022-10-20T20:26:45.082Z,99717.78
2022-10-20T20:29:12.235Z,99718.59
2022-10-20T20:31:39.290Z,99724.94
2022-10-20T20:34:06.475Z,99717.25
2022-10-20T20:36:33.918Z,99707.59
2022-10-20T20:39:01.153Z,99712.78
2022-10-20T20:41:29.519Z,99717.78
2022-10-20T20:43:57.167Z,99714.34
2022-10-20T20:46:26.307Z,99707.88
2022-10-20T20:48:54.328Z,99698.16
2022-10-20T20:51:21.487Z,99702.34
2022-10-20T20:53:48.315Z,99704.88
2022-10-20T20:56:19.615Z,99704.66
2022-10-20T20:58:48.856Z,99704.19
2022-10-20T21:01:21.685Z,99697.00
2022-10-20T21:03:53.008Z,99695.91
2022-10-20T21:06:22.962Z,99687.81
2022-10-20T21:08:56.291Z,99687.59
2022-10-20T21:11:25.826Z,99688.97
2022-10-20T21:13:54.787Z,99681.28
2022-10-20T21:16:26.475Z,99689.97
2022-10-20T21:19:07.528Z,99685.47
2022-10-20T21:21:40.295Z,99682.69
2022-10-20T21:24:07.080Z,99682.22
2022-10-20T21:26:34.045Z,99682.69
2022-10-20T21:29:00.905Z,99689.34
2022-10-20T21:31:29.288Z,99688.97
2022-10-20T21:34:02.650Z,99699.28
2022-10-20T21:36:32.233Z,99706.66
2022-10-20T21:38:59.993Z,99711.94
2022-10-20T21:41:32.915Z,99702.69
2022-10-20T21:46:52.795Z,99701.97
2022-10-20T21:49:22.397Z,99702.47
2022-10-20T21:51:51.611Z,99701.13
2022-10-20T21:54:26.599Z,99699.84
2022-10-20T21:56:54.358Z,99688.34
2022-10-20T21:59:24.359Z,99692.03
2022-10-20T22:01:53.503Z,99676.31
2022-10-20T22:04:23.494Z,99673.59
2022-10-20T22:06:50.424Z,99676.81
2022-10-20T22:09:18.364Z,99669.00
2022-10-20T22:11:50.479Z,99664.69
2022-10-20T22:14:17.263Z,99653.66
2022-10-20T22:16:44.153Z,99668.66
2022-10-20T22:19:22.794Z,99669.44
2022-10-20T22:21:52.261Z,99684.63
2022-10-20T22:24:20.700Z,99679.06
2022-10-20T22:26:48.888Z,99685.50
2022-10-20T22:29:15.797Z,99689.69
2022-10-20T22:31:42.894Z,99678.88
2022-10-20T22:34:10.434Z,99683.09
2022-10-20T22:36:39.207Z,99674.69
2022-10-20T22:39:06.266Z,99684.47
2022-10-20T22:41:33.926Z,99670.13
2022-10-20T22:44:00.908Z,99671.22
2022-10-20T22:46:27.735Z,99675.91
2022-10-20T22:48:54.572Z,99679.88
2022-10-20T22:51:21.427Z,99676.97
2022-10-20T22:53:48.230Z,99670.69
2022-10-20T22:56:18.819Z,99669.78
2022-10-20T22:58:46.317Z,99672.41
2022-10-20T23:01:16.186Z,99672.13
2022-10-20T23:03:43.300Z,99667.44
2022-10-20T23:06:19.254Z,99666.44
2022-10-20T23:08:48.951Z,99658.84
2022-10-20T23:11:17.446Z,99667.28
2022-10-20T23:13:45.220Z,99671.00
2022-10-20T23:16:13.505Z,99672.34
2022-10-20T23:18:40.412Z,99663.94
2022-10-20T23:21:08.108Z,99659.47
2022-10-20T23:23:37.137Z,99663.50
2022-10-20T23:26:05.425Z,99656.47
2022-10-20T23:28:33.303Z,99652.56
2022-10-20T23:31:06.332Z,99669.38
2022-10-20T23:33:33.151Z,99675.72
2022-10-20T23:36:00.482Z,99673.88
2022-10-20T23:38:27.874Z,99643.84
2022-10-20T23:40:54.653Z,99635.78
2022-10-20T23:43:21.381Z,99642.91
2022-10-20T23:45:48.184Z,99649.16
2022-10-20T23:48:15.042Z,99642.59
2022-10-20T23:50:44.193Z,99632.69
2022-10-20T23:53:11.628Z,99626.69
2022-10-20T23:55:39.381Z,99618.81
2022-10-20T23:58:06.318Z,99646.38
